Terminal Aerodrome Forecast
Issued by NWS Louisville, KY

Home | Current Version | Previous Version | Text Only | Print | Product List | Glossary Off
Versions: 1 2 3 4 5 6 7 8 9 10 11 12 13 14 15 16 17

000
FTUS43 KLMK 141200 AAA
TAFBWG
TAF AMD
KBWG 141223Z 1412/1512 23011KT 6SM -SHRA VCTS SCT020 BKN045CB
     FM141800 26008KT P6SM SCT040 BKN250
     FM150600 31004KT 6SM BR BKN120=

USA.gov is the U.S. government's official web portal to all federal, state and local government web resources and services.